Pansy, Arkansas
Current Conditions -  °F | °C
As of 10:53 PM on Friday 28 Nov 2014 (Local Time) from KPBF Reporting Station
Clear Clear  
Wind Chill: 10°   Ceiling: Unl
Heat Index: 10°   Visibility: 10mi
Dew Point:   Wind: 13mph
Humidity: 63%   Direction: 190°S
Pressure: 30.08"   Gusts: NA
Location:  33.947°N, 92.1633°W
Report Text: KPBF 290453Z AUTO 19011KT 10SM CLR 10/03 A3008 RMK AO2 SLP185 T01000033
Loading
Personal Weather Stations






























Interactive Weather Map New forecast layout! Learn more

10-Day Weather Forecast

Advertisements
Track Severe Weather on mobile